Time;durP1;ratioP1;P1;durP2;ratioP2;P2;SDS_P1;SDS_P2;PMS_P1;PMS_P2;Temp;Humidity;BMP_temperature;BMP_pressure;BME280_temperature;BME280_humidity;BME280_pressure;Samples;Min_cycle;Max_cycle;Signal;HPM_P1;HPM_P2
2021/04/08 00:04:12;;;;;;;15.70;3.38;;;;;;;0.85;82.62;101897.03;4983795;28;20080;-65
2021/04/08 00:06:38;;;;;;;11.50;3.78;;;;;;;0.77;82.96;101904.41;4993786;28;20051;-63
2021/04/08 00:09:04;;;;;;;15.05;2.97;;;;;;;0.79;82.96;101905.38;4993525;28;20411;-64
2021/04/08 00:11:30;;;;;;;12.70;2.75;;;;;;;0.79;82.98;101907.06;4992857;28;20689;-64
2021/04/08 00:13:57;;;;;;;9.50;3.30;;;;;;;0.80;82.89;101902.00;4991417;28;20054;-64
2021/04/08 00:19:44;;;;;;;9.77;3.05;;;;;;;0.76;83.14;101912.91;4983553;28;20138;-68
2021/04/08 00:22:11;;;;;;;11.93;2.45;;;;;;;0.81;83.00;101919.09;4993186;28;20050;-63
2021/04/08 00:24:37;;;;;;;15.48;3.55;;;;;;;0.74;83.10;101912.88;4995292;28;20073;-63
2021/04/08 00:30:25;;;;;;;11.25;3.67;;;;;;;0.77;83.06;101917.22;4988900;28;20157;-63
2021/04/08 00:32:51;;;;;;;9.73;3.55;;;;;;;0.77;82.94;101914.66;4992644;28;20502;-65
2021/04/08 00:35:17;;;;;;;14.57;4.18;;;;;;;0.81;83.02;101920.78;4993057;28;20046;-65
2021/04/08 00:37:43;;;;;;;14.20;3.50;;;;;;;0.79;83.03;101918.16;4992472;28;20056;-64
2021/04/08 00:40:12;;;;;;;12.95;3.00;;;;;;;0.80;83.01;101919.91;5001729;28;20511;-64
2021/04/08 00:42:39;;;;;;;9.25;2.85;;;;;;;0.79;82.98;101920.72;4993019;28;20078;-65
2021/04/08 00:45:06;;;;;;;15.10;4.13;;;;;;;0.89;82.58;101934.78;4991401;28;20046;-65
2021/04/08 00:47:33;;;;;;;10.60;3.38;;;;;;;0.91;82.41;101928.03;4994021;28;20356;-63
2021/04/08 00:49:59;;;;;;;12.63;4.03;;;;;;;0.88;82.61;101927.91;4992466;28;20523;-66
2021/04/08 00:52:25;;;;;;;9.30;2.75;;;;;;;0.90;82.59;101927.16;4991294;28;20054;-65
2021/04/08 00:54:51;;;;;;;12.00;3.00;;;;;;;0.95;82.34;101939.28;4993131;28;20546;-62
2021/04/08 00:57:17;;;;;;;11.32;2.60;;;;;;;0.97;82.24;101933.41;4993179;28;20523;-66
2021/04/08 00:59:45;;;;;;;9.73;3.50;;;;;;;0.97;81.97;101940.19;4987759;28;20054;-64
2021/04/08 01:05:34;;;;;;;15.10;3.47;;;;;;;0.95;82.22;101940.16;4985904;28;20041;-59
2021/04/08 01:08:00;;;;;;;13.82;2.65;;;;;;;0.93;82.20;101944.31;4977819;28;20046;-67
2021/04/08 01:10:26;;;;;;;9.65;2.95;;;;;;;0.94;82.38;101938.41;4992216;28;20059;-65
2021/04/08 01:12:57;;;;;;;8.35;2.92;;;;;;;0.98;81.99;101936.81;4991699;28;20046;-66
2021/04/08 01:15:24;;;;;;;11.18;2.92;;;;;;;0.92;82.01;101940.00;4991998;28;20069;-65
2021/04/08 01:17:57;;;;;;;17.38;3.50;;;;;;;0.91;82.17;101943.38;4983760;28;20451;-62
2021/04/08 01:20:59;;;;;;;15.32;3.30;;;;;;;0.86;82.49;101938.09;4988448;28;20053;-66
2021/04/08 01:23:54;;;;;;;8.23;3.10;;;;;;;0.82;81.99;101936.22;4987189;28;20049;-65
2021/04/08 01:26:45;;;;;;;9.35;2.97;;;;;;;0.80;82.48;101940.41;4990270;28;20039;-63
2021/04/08 01:29:22;;;;;;;13.68;4.38;;;;;;;0.84;82.33;101941.41;4991848;28;20050;-61
2021/04/08 01:31:50;;;;;;;6.95;3.25;;;;;;;0.82;82.58;101941.34;4991280;28;20509;-65
2021/04/08 01:37:47;;;;;;;11.52;3.95;;;;;;;0.75;82.82;101950.47;4987061;28;20045;-66
2021/04/08 01:40:14;;;;;;;13.95;3.78;;;;;;;0.73;82.80;101948.66;4994605;28;20057;-64
2021/04/08 01:46:02;;;;;;;13.63;3.83;;;;;;;0.79;83.03;101950.59;4982398;28;20068;-64
2021/04/08 01:51:53;;;;;;;14.48;3.75;;;;;;;0.81;82.33;101949.84;4978249;28;20045;-64
2021/04/08 02:01:03;;;;;;;10.20;3.60;;;;;;;0.70;82.60;101948.53;4979276;28;20502;-64
2021/04/08 02:03:31;;;;;;;15.05;4.30;;;;;;;0.68;82.63;101953.59;4993165;28;20049;-64
2021/04/08 02:05:59;;;;;;;12.55;3.17;;;;;;;0.64;82.71;101948.28;4990279;28;20091;-64
2021/04/08 02:08:27;;;;;;;16.85;3.30;;;;;;;0.64;82.90;101954.28;4988475;28;20050;-65
2021/04/08 02:10:55;;;;;;;12.63;3.00;;;;;;;0.64;83.02;101955.97;4985773;28;20081;-65
2021/04/08 02:13:23;;;;;;;8.23;2.45;;;;;;;0.67;82.99;101953.50;4987593;28;20070;-63
2021/04/08 02:15:50;;;;;;;15.70;4.28;;;;;;;0.67;82.35;101953.50;4982054;28;20046;-63
2021/04/08 02:18:17;;;;;;;12.30;4.10;;;;;;;0.71;82.60;101957.97;4994822;28;20058;-65
2021/04/08 02:20:45;;;;;;;14.93;3.40;;;;;;;0.62;82.81;101955.88;4978111;28;20038;-65
2021/04/08 02:23:18;;;;;;;12.48;3.17;;;;;;;0.65;82.59;101950.03;5000991;28;20060;-64
2021/04/08 02:25:45;;;;;;;8.48;2.63;;;;;;;0.62;82.77;101950.75;4989775;28;20042;-64
2021/04/08 02:28:12;;;;;;;10.90;3.08;;;;;;;0.59;82.77;101948.97;4988057;28;20054;-64
2021/04/08 02:30:46;;;;;;;12.70;3.30;;;;;;;0.60;82.91;101950.72;4981788;28;20051;-67
2021/04/08 02:33:19;;;;;;;9.50;2.22;;;;;;;0.68;82.75;101950.16;4983077;28;20054;-62
2021/04/08 02:35:49;;;;;;;8.77;2.58;;;;;;;0.68;82.41;101943.34;4986265;28;23240;-63
2021/04/08 02:38:16;;;;;;;15.27;2.95;;;;;;;0.65;82.32;101950.91;4987574;28;20081;-66
2021/04/08 02:40:47;;;;;;;10.05;2.10;;;;;;;0.63;82.28;101954.22;4983895;28;20062;-65
2021/04/08 02:44:09;;;;;;;10.30;3.30;;;;;;;0.64;82.08;101953.41;4979831;28;20069;-63
2021/04/08 02:46:36;;;;;;;9.70;1.65;;;;;;;0.68;82.30;101958.72;4986417;28;20061;-64
2021/04/08 02:49:03;;;;;;;9.60;1.95;;;;;;;0.59;82.64;101959.19;4985040;28;20607;-64
2021/04/08 02:51:33;;;;;;;11.40;2.22;;;;;;;0.65;82.19;101958.59;4986102;28;20453;-63
2021/04/08 02:54:08;;;;;;;11.38;2.20;;;;;;;0.63;82.39;101957.63;4984998;28;20076;-64
2021/04/08 02:56:40;;;;;;;7.43;1.63;;;;;;;0.65;82.32;101961.16;4985435;28;20082;-64
2021/04/08 02:59:10;;;;;;;12.20;2.00;;;;;;;0.63;82.65;101956.78;4985730;28;21365;-67
2021/04/08 03:01:49;;;;;;;8.77;1.60;;;;;;;0.65;82.22;101957.72;4984369;28;20337;-63
2021/04/08 03:04:18;;;;;;;7.47;1.83;;;;;;;0.70;82.25;101958.78;4985648;28;20066;-64
2021/04/08 03:06:44;;;;;;;15.27;2.47;;;;;;;0.71;82.41;101955.41;4987559;28;20424;-65
2021/04/08 03:09:11;;;;;;;7.80;1.45;;;;;;;0.72;81.84;101963.13;4991404;28;20054;-64
2021/04/08 03:11:39;;;;;;;9.35;1.60;;;;;;;0.71;82.01;101956.25;4988875;28;20053;-65
2021/04/08 03:14:07;;;;;;;10.75;1.70;;;;;;;0.67;82.44;101968.88;4989963;28;20345;-63
2021/04/08 03:16:39;;;;;;;8.88;1.67;;;;;;;0.68;82.58;101965.50;4986592;28;20051;-64
2021/04/08 03:19:07;;;;;;;5.65;1.42;;;;;;;0.71;82.38;101960.53;4993743;28;20100;-63
2021/04/08 03:28:32;;;;;;;12.38;2.15;;;;;;;0.64;82.16;101974.75;4972477;28;20101;-64
2021/04/08 03:30:58;;;;;;;12.20;2.90;;;;;;;0.63;82.41;101977.25;4982195;28;20061;-62
2021/04/08 03:33:25;;;;;;;7.25;1.73;;;;;;;0.60;82.14;101977.97;4976143;28;20050;-65
2021/04/08 03:35:52;;;;;;;8.60;2.28;;;;;;;0.56;82.42;101971.88;4991775;28;20050;-65
2021/04/08 03:38:19;;;;;;;14.90;2.28;;;;;;;0.58;82.48;101972.81;4990715;28;20054;-64
2021/04/08 03:40:46;;;;;;;8.98;1.77;;;;;;;0.62;82.72;101973.81;4988886;28;20158;-66
2021/04/08 03:43:13;;;;;;;14.15;2.72;;;;;;;0.66;82.56;101977.38;4999606;28;20054;-65
2021/04/08 03:45:40;;;;;;;12.63;2.05;;;;;;;0.65;82.54;101979.06;4987032;28;20054;-65
2021/04/08 03:48:08;;;;;;;11.05;2.25;;;;;;;0.63;82.42;101974.69;4993609;28;20050;-64
2021/04/08 03:50:34;;;;;;;7.78;1.45;;;;;;;0.56;82.89;101971.88;4994764;28;20042;-65
2021/04/08 03:53:02;;;;;;;8.65;1.55;;;;;;;0.67;83.11;101976.56;4994617;28;20057;-65
2021/04/08 03:55:30;;;;;;;7.25;1.60;;;;;;;0.68;83.05;101981.75;4993515;28;20409;-65
2021/04/08 03:57:57;;;;;;;6.35;1.80;;;;;;;0.66;83.01;101972.25;4994226;28;20057;-66
2021/04/08 04:00:25;;;;;;;9.27;1.70;;;;;;;0.74;82.90;101976.03;4979688;28;20254;-65
2021/04/08 04:02:53;;;;;;;7.90;1.60;;;;;;;0.77;82.92;101983.81;4988587;28;20090;-65
2021/04/08 04:05:21;;;;;;;7.50;2.65;;;;;;;0.88;82.67;101980.00;4990751;28;20042;-65
2021/04/08 04:07:50;;;;;;;11.95;2.42;;;;;;;0.95;82.47;101978.56;4988872;28;20064;-67
2021/04/08 04:10:19;;;;;;;8.57;1.98;;;;;;;0.93;82.38;101975.97;4992775;28;20046;-66
2021/04/08 04:12:47;;;;;;;11.63;2.28;;;;;;;0.93;82.14;101975.06;4988856;28;20057;-65
2021/04/08 04:15:14;;;;;;;8.15;1.85;;;;;;;1.00;81.75;101983.88;4988692;28;20057;-65
2021/04/08 04:17:40;;;;;;;14.80;3.10;;;;;;;1.01;82.11;101976.25;4990205;28;20042;-64
2021/04/08 04:20:08;;;;;;;10.20;2.20;;;;;;;1.02;81.92;101974.59;4984645;28;20657;-65
2021/04/08 04:22:36;;;;;;;10.25;2.30;;;;;;;1.05;82.01;101974.69;4988024;28;20042;-66
2021/04/08 04:25:02;;;;;;;14.77;2.70;;;;;;;1.05;81.86;101975.56;4987068;28;20087;-66
2021/04/08 04:27:28;;;;;;;12.38;2.28;;;;;;;1.01;82.16;101981.38;4993379;28;20137;-65
2021/04/08 04:29:54;;;;;;;22.77;3.55;;;;;;;1.01;81.98;101986.50;4991074;28;20077;-67
2021/04/08 04:32:20;;;;;;;12.50;2.25;;;;;;;1.13;81.54;101975.00;4988520;28;20047;-66
2021/04/08 04:34:46;;;;;;;11.55;2.55;;;;;;;1.13;81.82;101981.00;4983955;28;20047;-66
2021/04/08 04:37:13;;;;;;;10.30;2.20;;;;;;;1.14;82.02;101982.75;4987002;28;20064;-66
2021/04/08 04:39:40;;;;;;;11.25;2.15;;;;;;;1.18;81.59;101984.63;4989954;28;20050;-65
2021/04/08 04:42:07;;;;;;;14.20;3.00;;;;;;;1.29;81.92;101992.75;4989102;28;20518;-65
2021/04/08 04:44:33;;;;;;;16.52;2.88;;;;;;;1.33;80.95;101993.75;4987988;28;20054;-66
2021/04/08 04:46:59;;;;;;;16.52;2.58;;;;;;;1.34;80.94;101987.81;4988250;28;20062;-65
2021/04/08 04:49:26;;;;;;;15.00;2.58;;;;;;;1.34;81.17;101991.22;4991844;28;20050;-65
2021/04/08 04:51:52;;;;;;;11.07;2.63;;;;;;;1.39;80.65;101991.41;4987191;28;20057;-65
2021/04/08 04:54:19;;;;;;;13.13;2.58;;;;;;;1.42;80.98;101998.31;4989497;28;20404;-64
2021/04/08 04:56:46;;;;;;;11.45;2.60;;;;;;;1.40;81.11;101996.56;4984592;28;20636;-65
2021/04/08 04:59:12;;;;;;;9.30;2.70;;;;;;;1.49;81.22;101995.22;4988475;28;20507;-66
2021/04/08 05:01:38;;;;;;;10.25;3.08;;;;;;;1.54;80.68;101998.81;4993271;28;20051;-66
2021/04/08 05:04:05;;;;;;;18.17;4.25;;;;;;;1.59;80.46;101998.97;4989466;28;20808;-66
2021/04/08 05:06:31;;;;;;;10.07;2.53;;;;;;;1.58;80.79;102004.94;4981012;28;20050;-65
2021/04/08 05:08:57;;;;;;;13.55;3.00;;;;;;;1.60;80.86;102008.44;4986570;28;20061;-65
2021/04/08 05:11:23;;;;;;;9.95;2.92;;;;;;;1.57;81.02;102009.19;4983027;28;20046;-65
2021/04/08 05:13:50;;;;;;;10.73;3.03;;;;;;;1.62;80.63;102002.53;4983801;28;20112;-64
2021/04/08 05:16:15;;;;;;;11.05;3.20;;;;;;;1.65;80.55;102004.34;4986359;28;20556;-66
2021/04/08 05:18:41;;;;;;;15.85;3.08;;;;;;;1.61;80.86;102012.75;4990714;28;20149;-65
2021/04/08 05:21:08;;;;;;;12.32;3.53;;;;;;;1.65;81.30;102014.59;4986874;28;20150;-65
2021/04/08 05:23:34;;;;;;;11.43;3.00;;;;;;;1.59;81.19;102016.94;4983376;28;20058;-65
2021/04/08 05:26:00;;;;;;;7.68;2.95;;;;;;;1.55;80.86;102015.94;4986049;28;20048;-67
2021/04/08 05:28:26;;;;;;;15.65;4.35;;;;;;;1.61;81.41;102015.31;4984562;28;20050;-63
2021/04/08 05:30:52;;;;;;;18.95;3.53;;;;;;;1.65;80.86;102018.06;4984083;28;20046;-63
2021/04/08 05:33:18;;;;;;;11.07;3.28;;;;;;;1.69;80.94;102008.78;4984332;28;20488;-64
2021/04/08 05:35:44;;;;;;;12.50;4.25;;;;;;;1.65;80.82;102019.72;4989747;28;20464;-64
2021/04/08 05:38:11;;;;;;;17.40;4.95;;;;;;;1.70;80.51;102020.78;4997180;28;20456;-65
2021/04/08 05:40:37;;;;;;;12.98;4.15;;;;;;;1.69;80.56;102022.50;4981673;28;20058;-65
2021/04/08 05:43:03;;;;;;;19.95;5.25;;;;;;;1.74;80.24;102022.66;4994758;28;20049;-64
2021/04/08 05:45:31;;;;;;;16.75;4.95;;;;;;;1.74;80.13;102027.81;4986236;28;20436;-64
2021/04/08 05:47:58;;;;;;;12.13;4.68;;;;;;;1.71;80.24;102027.66;4984904;28;20460;-63
2021/04/08 05:50:25;;;;;;;12.98;5.55;;;;;;;1.76;80.06;102035.53;4983344;28;20046;-64
2021/04/08 05:52:51;;;;;;;13.95;5.28;;;;;;;1.88;79.96;102027.44;4990124;28;20061;-63
2021/04/08 05:55:17;;;;;;;15.15;5.55;;;;;;;1.90;80.13;102028.38;4986724;28;20574;-66
2021/04/08 05:57:43;;;;;;;14.00;5.28;;;;;;;1.97;79.80;102028.66;4989521;28;20043;-64
2021/04/08 06:00:11;;;;;;;18.23;5.55;;;;;;;2.05;78.98;102039.19;4988384;28;20455;-62
2021/04/08 06:02:38;;;;;;;13.90;5.35;;;;;;;2.04;79.11;102040.03;4982711;28;20050;-66
2021/04/08 06:05:07;;;;;;;9.73;4.50;;;;;;;2.08;78.37;102029.03;4988494;28;20047;-67
2021/04/08 06:07:33;;;;;;;13.85;5.32;;;;;;;2.13;78.15;102030.09;4982802;28;20447;-64
2021/04/08 06:09:59;;;;;;;16.05;5.85;;;;;;;2.23;78.39;102039.00;4994019;28;20042;-64
2021/04/08 06:12:25;;;;;;;13.73;5.65;;;;;;;2.22;77.72;102032.09;4986793;28;20070;-64
2021/04/08 06:14:51;;;;;;;15.75;6.03;;;;;;;2.27;77.62;102034.84;4987843;28;20082;-63
2021/04/08 06:17:17;;;;;;;20.10;9.35;;;;;;;2.48;79.01;102040.75;5006631;22;20058;-63
2021/04/08 06:19:45;;;;;;;22.73;7.18;;;;;;;2.59;77.38;102040.25;5003711;28;20054;-64
2021/04/08 06:22:11;;;;;;;21.13;6.63;;;;;;;2.63;76.53;102048.13;5001055;28;20050;-66
2021/04/08 06:24:37;;;;;;;19.00;6.30;;;;;;;2.64;76.60;102046.44;5001904;28;20190;-64
2021/04/08 06:27:04;;;;;;;12.07;5.97;;;;;;;2.63;76.11;102044.69;4998024;28;20459;-64
2021/04/08 06:29:30;;;;;;;24.38;7.03;;;;;;;2.70;76.32;102050.88;4982277;28;20061;-65
2021/04/08 06:31:56;;;;;;;17.80;7.53;;;;;;;2.69;76.78;102049.16;4981487;28;20042;-65
2021/04/08 06:34:22;;;;;;;23.95;7.43;;;;;;;2.76;76.44;102045.97;4985697;28;20137;-65
2021/04/08 06:36:49;;;;;;;23.55;7.45;;;;;;;2.78;75.70;102052.03;4986143;28;20049;-64
2021/04/08 06:39:15;;;;;;;17.02;6.35;;;;;;;2.82;75.51;102050.44;4981014;28;20074;-64
2021/04/08 06:41:41;;;;;;;16.38;6.05;;;;;;;2.81;75.50;102054.69;4981530;28;20043;-64
2021/04/08 06:44:08;;;;;;;15.82;7.00;;;;;;;2.92;75.56;102066.22;4979190;28;20058;-65
2021/04/08 06:46:37;;;;;;;15.60;6.57;;;;;;;3.02;75.04;102058.81;4984050;28;20054;-64
2021/04/08 06:49:10;;;;;;;18.90;7.80;;;;;;;3.08;74.89;102065.03;4981450;28;20468;-64
2021/04/08 06:51:38;;;;;;;22.98;7.97;;;;;;;3.17;74.07;102059.34;4980035;28;20059;-64
2021/04/08 06:54:05;;;;;;;15.20;7.18;;;;;;;3.26;73.46;102057.06;4990239;28;20054;-64
2021/04/08 06:56:34;;;;;;;16.45;6.70;;;;;;;3.25;74.27;102057.88;4983223;28;20057;-65
2021/04/08 06:59:01;;;;;;;18.23;6.68;;;;;;;3.37;73.96;102070.25;4980437;28;20043;-64
2021/04/08 07:01:28;;;;;;;19.92;7.82;;;;;;;3.41;73.97;102064.41;4984704;28;20042;-65
2021/04/08 07:03:55;;;;;;;13.88;7.05;;;;;;;3.49;72.85;102071.47;4979951;28;20058;-65
2021/04/08 07:06:22;;;;;;;15.52;6.40;;;;;;;3.48;72.35;102065.47;4989563;28;20054;-65
2021/04/08 07:08:48;;;;;;;15.88;7.25;;;;;;;3.61;72.38;102071.88;4987232;28;20058;-65
2021/04/08 07:11:14;;;;;;;19.25;7.97;;;;;;;3.66;71.29;102078.00;4979523;28;20072;-66
2021/04/08 07:13:41;;;;;;;15.05;7.15;;;;;;;3.63;71.96;102072.78;4981552;28;20050;-65
2021/04/08 07:16:09;;;;;;;17.02;6.57;;;;;;;3.68;71.33;102081.50;4985274;28;20100;-66
2021/04/08 07:18:35;;;;;;;21.08;7.25;;;;;;;3.73;71.29;102077.41;4986631;28;20083;-66
2021/04/08 07:21:01;;;;;;;16.10;6.68;;;;;;;3.79;70.79;102084.44;4981267;28;20496;-66
2021/04/08 07:23:27;;;;;;;16.80;6.75;;;;;;;3.77;70.11;102087.75;4979601;28;20087;-66
2021/04/08 07:26:01;;;;;;;15.60;6.32;;;;;;;3.79;70.56;102086.13;4982348;28;20070;-66
2021/04/08 07:28:32;;;;;;;19.25;6.60;;;;;;;3.93;70.14;102083.97;4987418;28;20085;-66
2021/04/08 07:31:24;;;;;;;16.77;6.90;;;;;;;3.95;69.55;102080.59;4975696;28;20043;-65
2021/04/08 07:33:51;;;;;;;14.00;5.45;;;;;;;4.01;69.52;102079.91;4984042;28;20058;-66
2021/04/08 07:36:27;;;;;;;14.07;6.35;;;;;;;4.15;68.99;102080.31;4984225;28;20448;-66
2021/04/08 07:38:53;;;;;;;14.20;5.28;;;;;;;4.17;67.52;102078.66;4979544;28;20077;-66
2021/04/08 07:41:24;;;;;;;19.55;5.32;;;;;;;4.19;67.40;102079.59;4980388;28;20058;-65
2021/04/08 07:44:06;;;;;;;15.57;5.03;;;;;;;4.17;67.47;102083.81;4982547;28;20052;-65
2021/04/08 07:46:37;;;;;;;11.52;4.45;;;;;;;4.27;66.65;102085.81;4982645;28;20042;-66
2021/04/08 07:49:04;;;;;;;16.00;5.70;;;;;;;4.32;67.22;102089.41;4979386;28;20050;-65
2021/04/08 07:51:32;;;;;;;8.73;4.75;;;;;;;4.48;65.60;102085.56;4980521;28;20105;-65
2021/04/08 07:54:09;;;;;;;10.85;4.55;;;;;;;4.61;64.75;102079.03;4990915;28;20046;-66
2021/04/08 07:56:35;;;;;;;12.35;4.55;;;;;;;4.58;64.83;102088.41;4984208;28;20077;-66
2021/04/08 07:59:16;;;;;;;13.73;4.40;;;;;;;4.62;63.68;102091.09;4983049;28;20058;-66
2021/04/08 08:01:44;;;;;;;12.27;4.47;;;;;;;4.64;64.32;102092.00;4985732;28;20047;-66
2021/04/08 08:04:19;;;;;;;12.30;4.50;;;;;;;4.85;63.82;102093.41;4986731;28;20047;-65
2021/04/08 08:06:45;;;;;;;12.30;4.30;;;;;;;5.11;62.62;102103.53;4985840;28;20038;-66
2021/04/08 08:09:11;;;;;;;13.27;4.03;;;;;;;5.26;62.77;102088.44;4991929;28;20491;-66
2021/04/08 08:11:40;;;;;;;13.18;4.32;;;;;;;5.27;61.42;102092.75;4983251;28;20058;-66
2021/04/08 08:14:06;;;;;;;11.75;3.60;;;;;;;5.21;61.51;102095.19;4978779;28;20050;-65
2021/04/08 08:16:33;;;;;;;9.57;4.30;;;;;;;5.22;60.35;102096.94;4985647;28;20050;-65
2021/04/08 08:18:59;;;;;;;11.13;3.78;;;;;;;5.16;61.64;102094.19;4992887;28;20050;-66
2021/04/08 08:21:35;;;;;;;11.23;3.85;;;;;;;5.10;60.35;102091.47;4984911;28;20109;-65
2021/04/08 08:24:05;;;;;;;17.25;4.13;;;;;;;5.18;60.15;102091.69;4982752;28;20051;-66
2021/04/08 08:26:33;;;;;;;13.75;3.63;;;;;;;5.19;61.33;102094.28;4984110;28;20102;-65
2021/04/08 08:29:03;;;;;;;14.60;3.83;;;;;;;5.42;60.84;102093.97;4982383;28;20042;-66
2021/04/08 08:31:34;;;;;;;12.82;3.88;;;;;;;5.57;59.57;102101.22;4979271;28;20047;-65
2021/04/08 08:34:04;;;;;;;10.50;4.05;;;;;;;5.66;58.63;102100.53;4984691;28;20515;-66
2021/04/08 08:36:31;;;;;;;14.63;4.45;;;;;;;5.73;57.05;102102.44;4984768;28;20132;-67
2021/04/08 08:39:00;;;;;;;7.25;3.03;;;;;;;5.93;57.78;102096.84;4985920;28;20050;-65
2021/04/08 08:41:26;;;;;;;11.20;2.92;;;;;;;5.94;56.40;102103.78;4979092;28;20046;-66
2021/04/08 08:43:53;;;;;;;11.18;3.50;;;;;;;5.96;56.72;102097.78;4981100;28;20065;-66
2021/04/08 08:46:19;;;;;;;9.07;3.42;;;;;;;5.86;57.16;102093.25;4979593;28;20039;-62
2021/04/08 08:48:53;;;;;;;11.43;3.47;;;;;;;5.91;56.33;102095.13;4984141;28;20046;-65
2021/04/08 08:51:20;;;;;;;10.63;3.20;;;;;;;5.99;57.56;102094.41;4979596;28;20430;-66
2021/04/08 08:53:46;;;;;;;12.18;4.68;;;;;;;5.91;57.67;102089.06;4985525;28;20055;-66
2021/04/08 08:56:14;;;;;;;11.43;3.20;;;;;;;6.01;57.21;102092.75;4983993;28;20093;-64
2021/04/08 08:58:40;;;;;;;12.13;4.32;;;;;;;5.99;58.98;102091.81;4983621;28;20054;-65
2021/04/08 09:01:06;;;;;;;8.18;3.85;;;;;;;6.17;57.88;102094.81;4983065;28;20046;-66
2021/04/08 09:03:33;;;;;;;8.77;2.17;;;;;;;6.18;53.81;102083.66;4986095;28;20054;-63
2021/04/08 09:06:05;;;;;;;7.75;2.10;;;;;;;6.24;52.09;102088.06;4983729;28;20049;-65
2021/04/08 09:08:32;;;;;;;6.80;2.72;;;;;;;6.51;53.04;102094.63;4982462;28;20141;-66
2021/04/08 09:10:58;;;;;;;11.00;2.67;;;;;;;6.68;49.86;102089.78;4984448;28;20049;-66
2021/04/08 09:13:25;;;;;;;11.35;2.72;;;;;;;6.77;49.47;102099.44;4978800;28;20078;-64
2021/04/08 09:15:51;;;;;;;11.05;3.28;;;;;;;6.81;49.99;102096.94;4989592;28;20061;-65
2021/04/08 09:18:20;;;;;;;9.25;2.13;;;;;;;6.79;46.99;102089.97;4979025;28;20101;-66
2021/04/08 09:20:48;;;;;;;12.52;3.75;;;;;;;7.11;51.76;102084.50;4978524;28;20527;-66
2021/04/08 09:23:18;;;;;;;9.15;2.75;;;;;;;7.34;49.01;102084.88;4982603;28;20046;-65
2021/04/08 09:25:52;;;;;;;7.78;3.08;;;;;;;7.54;48.29;102084.31;4985019;28;20039;-66
2021/04/08 09:28:18;;;;;;;6.13;2.60;;;;;;;7.39;48.91;102080.66;4985254;28;20133;-66
2021/04/08 09:30:51;;;;;;;5.47;2.28;;;;;;;7.38;42.59;102078.06;4987323;28;20797;-66
2021/04/08 09:33:18;;;;;;;5.43;2.35;;;;;;;7.21;44.76;102080.38;4984847;28;20120;-66
2021/04/08 09:35:44;;;;;;;8.77;3.47;;;;;;;7.03;40.64;102086.09;4983874;28;20141;-65
2021/04/08 09:38:18;;;;;;;8.50;2.47;;;;;;;6.91;45.92;102081.59;4979367;28;20534;-66
2021/04/08 09:41:34;;;;;;;7.85;2.58;;;;;;;6.74;45.69;102087.31;4984204;28;20054;-65
2021/04/08 09:44:01;;;;;;;8.70;2.30;;;;;;;6.65;45.75;102081.97;4977890;28;20074;-66
2021/04/08 09:46:37;;;;;;;10.30;2.40;;;;;;;6.82;47.27;102079.69;4983820;28;20038;-65
2021/04/08 09:49:03;;;;;;;7.53;2.42;;;;;;;6.79;45.42;102074.47;4985591;28;20077;-65
2021/04/08 09:51:36;;;;;;;5.75;2.47;;;;;;;6.80;46.97;102077.09;4978912;28;20133;-65
2021/04/08 09:54:14;;;;;;;7.35;2.70;;;;;;;7.01;46.71;102088.66;4970117;28;20511;-66
2021/04/08 09:56:49;;;;;;;6.68;2.45;;;;;;;6.87;44.82;102079.78;4983285;28;20054;-66
2021/04/08 09:59:17;;;;;;;11.88;3.22;;;;;;;6.98;47.40;102078.25;4984083;28;20062;-65
2021/04/08 10:01:44;;;;;;;5.85;3.03;;;;;;;6.87;45.58;102064.25;4982452;28;20828;-65
2021/04/08 10:04:13;;;;;;;8.32;2.85;;;;;;;6.84;44.72;102065.09;4986438;28;20050;-65
2021/04/08 10:06:39;;;;;;;7.57;3.38;;;;;;;7.13;44.67;102068.19;4981251;28;20047;-65
2021/04/08 10:09:07;;;;;;;11.27;3.63;;;;;;;7.08;45.62;102059.47;4986219;28;20066;-61
2021/04/08 10:11:33;;;;;;;9.82;2.80;;;;;;;7.20;43.36;102069.13;4984279;28;20051;-65
2021/04/08 10:13:59;;;;;;;5.47;2.10;;;;;;;7.03;43.91;102065.41;4980766;28;20080;-64
2021/04/08 10:16:25;;;;;;;5.90;2.05;;;;;;;7.00;41.93;102064.50;4982803;28;20061;-65
2021/04/08 10:18:59;;;;;;;5.72;2.42;;;;;;;7.01;42.08;102067.97;4981609;28;20095;-63
2021/04/08 10:21:25;;;;;;;6.82;2.10;;;;;;;7.19;40.87;102067.38;4985337;28;20078;-65
2021/04/08 10:23:53;;;;;;;6.88;2.00;;;;;;;7.29;40.16;102065.84;4983572;28;20058;-65
2021/04/08 10:26:21;;;;;;;7.22;2.00;;;;;;;7.47;40.83;102058.34;4986049;28;20043;-65
2021/04/08 10:28:49;;;;;;;7.75;2.55;;;;;;;7.48;39.38;102059.22;4979075;28;20050;-68
2021/04/08 10:31:17;;;;;;;5.22;2.30;;;;;;;7.41;39.77;102062.56;4980892;28;20065;-68
2021/04/08 10:33:44;;;;;;;8.15;2.00;;;;;;;7.32;39.56;102055.53;4984665;28;20594;-66
2021/04/08 10:36:10;;;;;;;4.97;1.95;;;;;;;7.40;38.43;102060.81;4985718;28;20047;-66
2021/04/08 10:38:37;;;;;;;7.10;2.30;;;;;;;7.27;38.29;102059.75;4969185;28;20055;-67
2021/04/08 10:41:03;;;;;;;5.82;2.25;;;;;;;7.36;40.12;102059.03;4983835;28;20053;-67
2021/04/08 10:43:30;;;;;;;7.72;2.60;;;;;;;7.51;40.98;102061.00;4978141;28;20050;-68
2021/04/08 10:45:58;;;;;;;4.97;1.88;;;;;;;7.63;39.73;102066.34;4980105;28;20523;-65
2021/04/08 10:48:26;;;;;;;6.03;2.55;;;;;;;7.69;39.41;102057.78;4980225;28;20050;-66
2021/04/08 10:50:54;;;;;;;5.85;2.22;;;;;;;7.91;39.27;102059.81;4979164;28;20566;-66
2021/04/08 10:53:25;;;;;;;5.95;2.80;;;;;;;7.84;39.10;102062.28;4987154;28;20046;-67
2021/04/08 10:55:52;;;;;;;8.70;2.50;;;;;;;7.76;40.15;102060.47;4984776;28;20052;-68
2021/04/08 10:58:26;;;;;;;9.90;3.28;;;;;;;7.92;41.55;102060.69;4986475;28;20046;-66
2021/04/08 11:00:54;;;;;;;6.40;2.75;;;;;;;8.06;40.85;102063.47;4982246;28;20079;-68
2021/04/08 11:03:20;;;;;;;7.13;2.60;;;;;;;8.20;40.45;102067.09;4981800;28;20046;-66
2021/04/08 11:05:46;;;;;;;6.10;2.45;;;;;;;8.24;39.07;102060.22;4976264;28;20066;-66
2021/04/08 11:08:13;;;;;;;8.45;2.70;;;;;;;8.34;40.67;102062.06;4979341;28;20050;-66
2021/04/08 11:10:39;;;;;;;7.35;2.97;;;;;;;8.36;39.72;102060.34;4985581;28;20047;-65
2021/04/08 11:13:06;;;;;;;5.80;2.33;;;;;;;8.01;40.52;102060.81;4980370;28;20050;-65
2021/04/08 11:15:33;;;;;;;8.90;2.83;;;;;;;8.21;39.63;102058.47;4982958;28;20054;-66
2021/04/08 11:18:05;;;;;;;6.75;2.70;;;;;;;8.06;38.59;102053.97;4984857;28;20054;-66
2021/04/08 11:20:33;;;;;;;5.72;2.88;;;;;;;8.06;39.34;102063.47;4977703;28;20516;-66
2021/04/08 11:23:00;;;;;;;9.55;2.88;;;;;;;8.25;38.74;102057.66;4979906;28;20114;-66
2021/04/08 11:25:28;;;;;;;6.32;2.90;;;;;;;8.28;38.19;102056.81;4976774;28;20574;-66
2021/04/08 11:27:58;;;;;;;7.68;2.55;;;;;;;8.27;39.88;102056.81;4983819;28;20061;-66
2021/04/08 11:30:27;;;;;;;8.50;2.80;;;;;;;8.42;39.29;102051.78;4981157;28;20819;-65
2021/04/08 11:32:55;;;;;;;6.05;3.08;;;;;;;8.43;37.64;102050.94;4983459;28;20061;-66
2021/04/08 11:35:25;;;;;;;7.80;3.45;;;;;;;8.38;37.94;102056.06;4979854;28;20046;-65
2021/04/08 11:38:02;;;;;;;8.90;3.30;;;;;;;8.07;38.77;102054.84;4985705;28;20206;-67
2021/04/08 11:40:28;;;;;;;10.32;2.95;;;;;;;8.09;38.39;102048.81;4980066;28;20447;-65
2021/04/08 11:42:54;;;;;;;5.38;2.70;;;;;;;8.09;39.48;102046.22;4982123;28;20055;-64
2021/04/08 11:45:23;;;;;;;7.82;3.00;;;;;;;8.15;38.86;102052.31;4985256;28;20058;-64
2021/04/08 11:48:07;;;;;;;7.28;2.88;;;;;;;8.28;36.76;102046.44;4980809;28;20042;-66
2021/04/08 11:50:35;;;;;;;8.52;3.22;;;;;;;8.39;35.94;102047.44;4985215;28;20396;-66
2021/04/08 11:53:07;;;;;;;5.78;2.60;;;;;;;8.29;38.07;102045.59;4997267;28;20054;-65
2021/04/08 11:55:37;;;;;;;7.75;2.75;;;;;;;8.32;37.94;102040.47;4986187;28;20134;-66
2021/04/08 11:58:04;;;;;;;8.93;3.30;;;;;;;8.49;37.94;102032.88;4985897;28;20113;-66
2021/04/08 12:00:30;;;;;;;6.85;2.85;;;;;;;8.74;40.04;102037.44;4985435;28;20058;-66
2021/04/08 12:02:57;;;;;;;6.57;2.55;;;;;;;8.90;39.19;102023.75;4983610;28;20069;-66
2021/04/08 12:05:23;;;;;;;5.00;2.60;;;;;;;9.13;37.30;102030.88;4986452;28;20137;-66
2021/04/08 12:07:51;;;;;;;9.10;3.03;;;;;;;9.07;35.89;102012.63;4989593;28;20039;-66
2021/04/08 12:10:28;;;;;;;10.27;4.20;;;;;;;8.91;37.33;102024.63;4985700;28;20049;-66
2021/04/08 12:13:09;;;;;;;8.38;3.08;;;;;;;8.90;37.22;102025.47;4989078;28;20050;-67